D/T METAR WX W/DIR W/SPE G/SPE TEMP DEWP
6/06/20 10:20 EGSS 060920Z AUTO 25015G25KT 9999 OVC031 10/04 Q0996 WSW (250°) 17.3mph 28.8mph 10°C 4°C
6/06/20 09:20 EGSS 060820Z AUTO 26014G24KT 230V300 9999 BKN031 10/03 Q0996 W (260°) 16.1mph 27.6mph 10°C 3°C
6/06/20 08:50 EGSS 060750Z AUTO 26016KT 9999 BKN030 10/03 Q0996 W (260°) 18.4mph 10°C 3°C
6/06/20 08:20 EGSS 060720Z AUTO 25016KT 9999 SCT029 10/03 Q0996 WSW (250°) 18.4mph 10°C 3°C
6/06/20 07:50 EGSS 060650Z AUTO 25016KT 9999 FEW030 09/03 Q0996 WSW (250°) 18.4mph 9°C 3°C
6/06/20 07:20 EGSS 060620Z AUTO 24014KT 9999 NCD 09/03 Q0997 WSW (240°) 16.1mph 9°C 3°C
6/06/20 06:50 EGSS 060550Z AUTO 25014KT 9999 NCD 08/03 Q0997 WSW (250°) 16.1mph 8°C 3°C
6/06/20 06:20 EGSS 060520Z AUTO 25012KT 9999 NCD 07/03 Q0997 WSW (250°) 13.8mph 7°C 3°C
6/06/20 05:50 EGSS 060450Z AUTO 24012KT 9999 NCD 07/03 Q0997 WSW (240°) 13.8mph 7°C 3°C
6/06/20 05:20 EGSS 060420Z AUTO 24011KT 9999 NCD 06/03 Q0997 WSW (240°) 12.7mph 6°C 3°C
6/06/20 04:50 EGSS 060350Z AUTO 25010KT 9999 NCD 06/03 Q0997 WSW (250°) 11.5mph 6°C 3°C
6/06/20 04:20 EGSS 060320Z AUTO 25009KT 9999 NCD 06/03 Q0997 WSW (250°) 10.4mph 6°C 3°C
6/06/20 03:50 EGSS 060250Z AUTO 25007KT 9999 NCD 06/03 Q0997 WSW (250°) 8.1mph 6°C 3°C
6/06/20 03:20 EGSS 060220Z AUTO 25007KT 9999 NCD 06/03 Q0997 WSW (250°) 8.1mph 6°C 3°C
6/06/20 02:50 EGSS 060150Z AUTO 26007KT 9999 NCD 07/03 Q0997 W (260°) 8.1mph 7°C 3°C
6/06/20 02:20 EGSS 060120Z AUTO 26006KT 9999 NCD 07/03 Q0997 W (260°) 6.9mph 7°C 3°C
6/06/20 01:50 EGSS 060050Z AUTO 26005KT 9999 NCD 07/03 Q0997 W (260°) 5.8mph 7°C 3°C
6/06/20 01:20 EGSS 060020Z AUTO 26006KT 9999 SCT047 07/03 Q0997 W (260°) 6.9mph 7°C 3°C
6/06/20 00:50 EGSS 052350Z AUTO 25005KT 9999 NCD 07/02 Q0997 WSW (250°) 5.8mph 7°C 2°C
6/06/20 00:20 EGSS 052320Z AUTO 25005KT 9999 NCD 07/02 Q0997 WSW (250°) 5.8mph 7°C 2°C
5/06/20 23:50 EGSS 052250Z AUTO 26004KT 9999 NCD 07/02 Q0997 W (260°) 4.6mph 7°C 2°C
5/06/20 23:20 EGSS 052220Z AUTO 25003KT 9999 NCD 08/02 Q0997 WSW (250°) 3.5mph 8°C 2°C
5/06/20 22:50 EGSS 052150Z AUTO VRB03KT 9999 NCD 08/02 Q0997 N (0°) 3.5mph 8°C 2°C
5/06/20 22:20 EGSS 052120Z AUTO 26005KT 9999 NCD 09/02 Q0997 W (260°) 5.8mph 9°C 2°C
5/06/20 21:50 EGSS 052050Z AUTO 28005KT 9999 -RA NCD 10/02 Q0997 -RA W (280°) 5.8mph 10°C 2°C
5/06/20 21:20 EGSS 052020Z AUTO 30006KT 9999 NCD 11/01 Q0997 WNW (300°) 6.9mph 11°C 1°C
5/06/20 20:50 EGSS 051950Z AUTO 30007KT 9999 NCD 12/01 Q0997 WNW (300°) 8.1mph 12°C 1°C
5/06/20 20:20 EGSS 051920Z AUTO 30006KT 9999 NCD 12/02 Q0996 WNW (300°) 6.9mph 12°C 2°C
5/06/20 19:50 EGSS 051850Z AUTO 30008KT 260V330 9999 NCD 13/01 Q0996 WNW (300°) 9.2mph 13°C 1°C
5/06/20 19:20 EGSS 051820Z AUTO 29009KT 9999 NCD 13/00 Q0996 WNW (290°) 10.4mph 13°C 0°C
5/06/20 18:50 EGSS 051750Z AUTO 30012KT 280V340 9999 NCD 14/00 Q0996 WNW (300°) 13.8mph 14°C 0°C
5/06/20 18:20 EGSS 051720Z AUTO 31010KT 270V330 9999 NCD 15/01 Q0996 NW (310°) 11.5mph 15°C 1°C
5/06/20 17:50 EGSS 051650Z AUTO 29010G20KT 240V330 9999 NCD 13/03 Q0996 WNW (290°) 11.5mph 23.0mph 13°C 3°C
5/06/20 17:20 EGSS 051620Z AUTO 30008KT 270V330 9999 NCD 15/04 Q0996 WNW (300°) 9.2mph 15°C 4°C
5/06/20 16:50 EGSS 051550Z AUTO 29010KT 250V320 9999 FEW043 13/03 Q0996 WNW (290°) 11.5mph 13°C 3°C
5/06/20 16:20 EGSS 051520Z AUTO 29013KT 9999 //////CB 12/04 Q0996 WNW (290°) 15.0mph 12°C 4°C
5/06/20 15:50 EGSS 051450Z AUTO 30010KT 270V330 9999 FEW039/// SCT046/// //////TCU 11/05 Q0996 WNW (300°) 11.5mph 11°C 5°C
5/06/20 15:20 EGSS 051420Z AUTO 30013KT 250V340 9999 FEW031/// //////CB 12/06 Q0996 WNW (300°) 15.0mph 12°C 6°C
5/06/20 14:50 EGSS 051350Z AUTO 29010KT 9999 -RA SCT034/// SCT042/// BKN049/// //////CB 09/06 Q0996 RESHRA -RA WNW (290°) 11.5mph 9°C 6°C
5/06/20 14:20 EGSS 051320Z AUTO 28007KT 240V310 9999 FEW025/// SCT030/// //////TCU 12/08 Q0996 W (280°) 8.1mph 12°C 8°C
5/06/20 13:50 EGSS 051250Z AUTO 28006KT 240V310 9999 -RA SCT025/// BKN045/// //////CB 09/07 Q0996 RERA -RA W (280°) 6.9mph 9°C 7°C
5/06/20 13:20 EGSS 051220Z AUTO 26011KT 230V290 9999 SCT034/// BKN048/// //////CB 12/05 Q0996 W (260°) 12.7mph 12°C 5°C
5/06/20 12:50 EGSS 051150Z AUTO 31010KT 270V340 9999 FEW044 12/04 Q0995 NW (310°) 11.5mph 12°C 4°C
5/06/20 12:20 EGSS 051120Z AUTO 31011KT 280V350 9999 SCT029/// //////TCU 13/05 Q0995 NW (310°) 12.7mph 13°C 5°C
5/06/20 11:50 EGSS 051050Z AUTO 31010KT 280V010 9999 SCT022/// SCT027/// BKN036/// //////CB 11/06 Q0995 NW (310°) 11.5mph 11°C 6°C
5/06/20 11:20 EGSS 051020Z AUTO 32010KT 9999 FEW020 BKN026 BKN033 10/06 Q0995 NW (320°) 11.5mph 10°C 6°C
5/06/20 10:50 EGSS 050950Z AUTO 32011KT 290V010 9999 BKN014 BKN023 11/07 Q0995 NW (320°) 12.7mph 11°C 7°C
5/06/20 09:50 EGSS 050850Z AUTO 29013G24KT 260V330 9999 BKN019 OVC031 11/07 Q0994 WNW (290°) 15.0mph 27.6mph 11°C 7°C
5/06/20 09:20 EGSS 050820Z AUTO 28013KT 250V310 9999 BKN022 OVC028 10/06 Q0994 W (280°) 15.0mph 10°C 6°C
5/06/20 08:50 EGSS 050750Z AUTO 28011KT 9999 BKN021 OVC027 11/07 Q0994 W (280°) 12.7mph 11°C 7°C
5/06/20 07:50 EGSS 050650Z AUTO 27011KT 9999 BKN023 10/06 Q0994 W (270°) 12.7mph 10°C 6°C
5/06/20 07:20 EGSS 050620Z AUTO 28011KT 250V320 9999 SCT022 10/07 Q0994 W (280°) 12.7mph 10°C 7°C
5/06/20 06:50 EGSS 050550Z AUTO 28008KT 9999 NCD 10/07 Q0994 W (280°) 9.2mph 10°C 7°C
5/06/20 06:20 EGSS 050520Z AUTO 28007KT 9999 NCD 09/07 Q0994 W (280°) 8.1mph 9°C 7°C
5/06/20 05:50 EGSS 050450Z AUTO 29008KT 250V310 9999 NCD 09/08 Q0995 WNW (290°) 9.2mph 9°C 8°C
5/06/20 05:20 EGSS 050420Z AUTO 28006KT 240V310 9999 FEW031 SCT044 09/08 Q0995 W (280°) 6.9mph 9°C 8°C
5/06/20 04:50 EGSS 050350Z AUTO 27007KT 9999 BKN030 OVC037 10/09 Q0995 W (270°) 8.1mph 10°C 9°C
5/06/20 04:20 EGSS 050320Z AUTO 27005KT 9999 BKN043/// //////CB 10/09 Q0995 W (270°) 5.8mph 10°C 9°C
5/06/20 03:50 EGSS 050250Z AUTO 25006KT 9999 -RA SCT015/// SCT025/// BKN035/// //////CB 10/09 Q0995 -RA WSW (250°) 6.9mph 10°C 9°C
5/06/20 03:20 EGSS 050220Z AUTO 24007KT 8000 -RA SCT014/// SCT023/// BKN033/// //////CB 10/09 Q0996 RERA -RA WSW (240°) 8.1mph 10°C 9°C
5/06/20 02:50 EGSS 050150Z AUTO 24007KT 7000 -RA FEW025/// SCT033/// BKN040/// //////TCU 10/09 Q0996 -RA WSW (240°) 8.1mph 10°C 9°C
5/06/20 02:20 EGSS 050120Z AUTO 24007KT 9999 -RA FEW030 BKN036 10/08 Q0997 -RA WSW (240°) 8.1mph 10°C 8°C
5/06/20 01:50 EGSS 050050Z AUTO 23005KT 9999 NCD 10/08 Q0997 SW (230°) 5.8mph 10°C 8°C
5/06/20 00:50 EGSS 042350Z AUTO 25007KT 9999 -RA NCD 11/09 Q0998 -RA WSW (250°) 8.1mph 11°C 9°C
5/06/20 00:20 EGSS 042320Z AUTO 24008KT 9999 -RA NCD 11/08 Q0998 -RA WSW (240°) 9.2mph 11°C 8°C
4/06/20 23:50 EGSS 042250Z AUTO 24008KT 9999 NCD 11/08 Q0999 WSW (240°) 9.2mph 11°C 8°C
4/06/20 23:20 EGSS 042220Z AUTO 23006KT 9999 FEW047 10/08 Q0999 SW (230°) 6.9mph 10°C 8°C
4/06/20 22:50 EGSS 042150Z AUTO 24005KT 9999 NCD 10/08 Q1000 WSW (240°) 5.8mph 10°C 8°C
4/06/20 22:20 EGSS 042120Z AUTO 23006KT 9999 NCD 09/08 Q1000 SW (230°) 6.9mph 9°C 8°C
4/06/20 21:50 EGSS 042050Z AUTO 21005KT 9999 NCD 09/07 Q1000 SSW (210°) 5.8mph 9°C 7°C
4/06/20 21:20 EGSS 042020Z AUTO 19005KT 9999 SCT039 BKN048 11/08 Q1000 S (190°) 5.8mph 11°C 8°C
4/06/20 20:50 EGSS 041950Z AUTO 20005KT 9999 SCT037 BKN044 11/08 Q1000 SSW (200°) 5.8mph 11°C 8°C
4/06/20 20:20 EGSS 041920Z AUTO VRB03KT 9999 SCT039 11/07 Q1000 N (0°) 3.5mph 11°C 7°C
4/06/20 19:50 EGSS 041850Z 24003KT 9999 BKN047 11/07 Q1001 WSW (240°) 3.5mph 11°C 7°C
4/06/20 19:20 EGSS 041820Z AUTO 34001KT 9999 FEW028 BKN033 OVC047 10/07 Q1001 NNW (340°) 1.2mph 10°C 7°C
4/06/20 18:50 EGSS 041750Z AUTO 32004KT 280V010 9999 FEW016 BKN024 OVC040 10/07 Q1001 NW (320°) 4.6mph 10°C 7°C
4/06/20 18:20 EGSS 041720Z AUTO VRB03KT 9999 SCT027 BKN038 OVC046 11/08 Q1001 N (0°) 3.5mph 11°C 8°C
4/06/20 17:50 EGSS 041650Z AUTO 28004KT 240V320 9999 BKN033 BKN043 10/08 Q1001 W (280°) 4.6mph 10°C 8°C
4/06/20 17:20 EGSS 041620Z AUTO 30007KT 270V330 9999 -RA BKN025 BKN034 OVC040 10/08 Q1001 -RA WNW (300°) 8.1mph 10°C 8°C
4/06/20 16:50 EGSS 041550Z AUTO 34008KT 9999 BKN030 OVC042 11/07 Q1001 NNW (340°) 9.2mph 11°C 7°C
4/06/20 16:20 EGSS 041520Z AUTO 32008KT 9999 BKN032 12/06 Q1002 NW (320°) 9.2mph 12°C 6°C
4/06/20 15:50 EGSS 041450Z AUTO 31008KT 270V340 9999 BKN040 OVC047 12/05 Q1002 NW (310°) 9.2mph 12°C 5°C
4/06/20 14:50 EGSS 041350Z AUTO 31008KT 260V350 9999 BKN037 BKN048 13/05 Q1002 NW (310°) 9.2mph 13°C 5°C
4/06/20 14:20 EGSS 041320Z AUTO 32011KT 280V350 9999 SCT040 BKN046 14/05 Q1002 NW (320°) 12.7mph 14°C 5°C
4/06/20 13:50 EGSS 041250Z AUTO 32009KT 290V360 9999 BKN039 OVC048 14/05 Q1002 NW (320°) 10.4mph 14°C 5°C
4/06/20 12:50 EGSS 041150Z AUTO 32009KT 280V360 9999 SCT033 14/05 Q1002 NW (320°) 10.4mph 14°C 5°C
4/06/20 12:20 EGSS 041120Z AUTO 32010KT 9999 SCT032 13/05 Q1003 NW (320°) 11.5mph 13°C 5°C
4/06/20 11:20 EGSS 041020Z AUTO 33009KT 9999 BKN024 12/06 Q1003 NNW (330°) 10.4mph 12°C 6°C
4/06/20 10:50 EGSS 040950Z AUTO 33010KT 9999 FEW024 11/06 Q1003 NNW (330°) 11.5mph 11°C 6°C
4/06/20 10:20 EGSS 040920Z AUTO 33010KT 290V010 9999 FEW020 11/07 Q1003 NNW (330°) 11.5mph 11°C 7°C
4/06/20 09:20 EGSS 040820Z AUTO 34008KT 9999 BKN015 BKN020 12/09 Q1003 NNW (340°) 9.2mph 12°C 9°C
4/06/20 08:50 EGSS 040750Z AUTO 35010KT 320V020 9999 BKN015 BKN024 11/08 Q1004 N (350°) 11.5mph 11°C 8°C
4/06/20 08:20 EGSS 040720Z AUTO 35008KT 9999 BKN011 OVC023 10/09 Q1004 N (350°) 9.2mph 10°C 9°C
4/06/20 07:20 EGSS 040620Z AUTO 35008KT 9999 BKN006 BKN010 OVC015 10/09 Q1004 N (350°) 9.2mph 10°C 9°C
4/06/20 06:50 EGSS 040550Z AUTO 34009KT 7000 -RA BKN004 OVC009 09/09 Q1004 REDZ -RA NNW (340°) 10.4mph 9°C 9°C
4/06/20 06:20 EGSS 040520Z AUTO 34009KT 9999 OVC006 09/09 Q1004 NNW (340°) 10.4mph 9°C 9°C